x

New Dungeness - 17 Nm Ne Of Port Angeles, Wa (46088) Wave Buoy

6:50 - Thu 30th Mar 2017 All times are PDT. -7 hours from GMT.

  • Sig Wave height 3.0ft
  • Swell Direction
  • Peak Period 4s
  • Average Period 3s
  • Wind
    20mph, 25mph gusts
  • Sea Temp 47°f
  • Ar Temp 47°f
  • Sea Pressure 1017.7mb
  • New Dungeness - 17 Nm Ne Of Port Angeles, Wa
  • New Dungeness - 17 Nm Ne Of Port Angeles, Wa

More Historic Weather Station data

Upgrade to MSW Pro to gain access to the past 30 days of data for over 8000 Wavebouys and Weather Stations around the globe.

Join Pro

Comparision Forecast

View Surf forecast
   
Qui 03/30 6:50 3ft 4s 3s 20 25 mph 1017.7mb 47f 47f
6:20 3ft 4s 3s 22 27 mph 1017.3mb 47f 47f
5:50 2.5ft 3s 3s 25 29 mph 1016.9mb 47f 47f
5:20 3ft 4s 3s 25 29 mph 1016.9mb 47f 46f
4:50 3.5ft 4s 4s 25 29 mph 1016.6mb 47f 46f
4:20 3.5ft 5s 4s 25 29 mph 1016.4mb 47f 46f
3:50 3.5ft 4s 4s 25 31 mph 1016.5mb 47f 46f
3:20 3.5ft 4s 4s 20 27 mph 1016.5mb 47f 46f
2:50 3.5ft 5s 4s 22 27 mph 1016.3mb 47f 46f
2:20 3.5ft 5s 4s 20 25 mph 1016.5mb 47f 46f
1:50 3.5ft 5s 4s 20 25 mph 1016mb 47f 46f
1:20 4ft 6s 5s 22 27 mph 1015.5mb 47f 47f
12:50 3.5ft 6s 5s 22 27 mph 1015mb 47f 46f
12:20 4ft 6s 5s 20 27 mph 1015.1mb 47f 46f
Qua 03/29 11:50 4ft 6s 5s 22 27 mph 1015mb 47f 47f
11:20 3.5ft 6s 5s 22 27 mph 1014.5mb 47f 47f
10:50 3.5ft 6s 5s 25 31 mph 1014.4mb 47f 47f
10:20 3.5ft 5s 4s 22 27 mph 1014.2mb 47f 47f
9:50 3.5ft 5s 4s 22 25 mph 1014.1mb 47f 47f
9:20 3ft 4s 4s 25 31 mph 1013.4mb 47f 46f
8:50 2.5ft 4s 4s 25 31 mph 1013mb 47f 47f
8:20 3ft 4s 4s 22 29 mph 1012.8mb 47f 48f
7:50 3ft 4s 4s 25 29 mph 1012.7mb 47f 48f
7:20 3ft 4s 3s 25 31 mph 1012.5mb 47f 48f
6:50 3ft 4s 3s 27 31 mph 1012.2mb 47f 48f
6:20 3.5ft 4s 3s 25 31 mph 1011.7mb 47f 49f
5:50 3.5ft 4s 4s 22 27 mph 1011.6mb 47f 49f
5:20 4ft 4s 4s 29 34 mph 1010.7mb 47f 49f
4:50 4.5ft 5s 4s 34 40 mph 1009.8mb 47f 49f
4:20 4.5ft 5s 4s 34 43 mph 1009mb 47f 48f
3:50 4.5ft 4s 4s 31 38 mph 1008.9mb 47f 49f
3:20 3.5ft 4s 4s 31 38 mph 1008.2mb 47f 50f
2:50 1.6ft 3s 3s 29 36 mph 1008mb 47f 50f
2:20 1ft 3s 4s 18 25 mph 1008.4mb 47f 51f
1:50 1.3ft 3s 4s 7 9 mph 1008.2mb 48f 50f
1:20 1.6ft 11s 4s 7 9 mph 1007.6mb 48f 48f
12:50 2ft 14s 4s 9
mph
1007.1mb 47f 48f
12:20 2ft 4s 4s 7 9 mph 1006.5mb 48f 48f
11:50 2.5ft 4s 4s 4
mph
1006.4mb 47f 49f
11:20 2.5ft 4s 4s 4
mph
1006.1mb 47f 49f
10:50 3ft 4s 4s 4 7 mph 1006mb 47f 48f
10:20 3ft 4s 4s 18 22 mph 1005.4mb 47f 48f
9:50 3.5ft 4s 4s 22 29 mph 1005.7mb 47f 48f
9:20 3.5ft 4s 4s 27 31 mph 1005.5mb 47f 48f
8:50 3.5ft 4s 4s 25 31 mph 1006.3mb 47f 47f
8:20 3.5ft 5s 4s 27 31 mph 1006.7mb 47f 47f
7:50 4ft 5s 4s 25 29 mph 1007.4mb 47f 47f
7:20 4ft 5s 4s 27 31 mph 1007.9mb 47f 47f
6:50 4ft 5s 4s 25 29 mph 1008.4mb 47f 47f
6:20 3.5ft 5s 4s 25 29 mph 1008.7mb 47f 47f
5:50 3.5ft 5s 4s 22 27 mph 1009.3mb 47f 47f
5:20 3.5ft 5s 4s 22 27 mph 1009.9mb 47f 47f
4:50 3ft 5s 4s 25 29 mph 1010.3mb 47f 47f
4:20 3ft 5s 4s 25 29 mph 1010.6mb 47f 47f
3:50 2.5ft 5s 4s 22 27 mph 1011.4mb 47f 47f
3:20 2.5ft 4s 4s 22 27 mph 1012.5mb 47f 47f
2:50 2ft 4s 4s 20 25 mph 1013.2mb 47f 47f
2:20 1.6ft 3s 4s 13 16 mph 1013.6mb 47f 47f
1:50 1.6ft 3s 4s 7
mph
1014.4mb 47f 47f
1:20 2ft 10s 4s 7
mph
1014.9mb 47f 48f
12:50 2ft 10s 5s 7 9 mph 1015.5mb 47f 48f
12:20 2.5ft 10s 5s 4 7 mph 1016.2mb 47f 47f
Ter 03/28 11:50 2ft 9s 4s 4
mph
1016.7mb 47f 48f
11:20 1.6ft 10s 4s 11
mph
1016.9mb 47f 48f
10:50 1.3ft 11s 4s 11
mph
1017.2mb 47f 48f
9:50 1.3ft 4s 4s 4
mph
1018.3mb 47f 48f
9:20 1.3ft 4s 4s 2 4 mph 1018.5mb 47f 47f
8:50 1.3ft 3s 4s 2 4 mph 1018.5mb 47f 48f
8:20 1.6ft 3s 4s 2 4 mph 1018.3mb 47f 48f
7:50 1.6ft 3s 4s  -  mph 1018.4mb 47f 48f
7:20 1.3ft 4s 4s 2
mph
1018.4mb 47f 48f
6:50 1.3ft 3s 4s 2
mph
1018.5mb 48f 48f
6:20 1ft 4s 4s 2
mph
1018.3mb 48f 48f
5:50 1ft 4s 4s 4 7 mph 1018.4mb 48f 49f
5:20 1ft 4s 4s 7
mph
1018.4mb 48f 49f
4:50 0.7ft  -  4s 4
mph
1018.3mb 48f 49f
4:20 0.7ft  -  4s 7 9 mph 1018.3mb 47f 49f
3:50 0.7ft  -  4s 9
mph
1018.6mb 48f 49f
3:20 0.7ft  -  4s 9 11 mph 1019.2mb 48f 48f
2:50 0.7ft  -  4s 7 9 mph 1019.3mb 48f 49f
2:20 1ft 9s 4s 4 7 mph 1019.3mb 48f 49f
1:50 1ft 10s 4s 7
mph
1019.4mb 48f 48f
12:50 1.3ft 10s 4s 7
mph
1019.2mb 47f 48f
11:50 1.6ft 3s 3s 9 11 mph 1019.7mb 47f 48f
10:50 2ft 4s 3s 11 13 mph 1019.5mb 47f 47f
9:50 2ft 4s 4s 11 13 mph 1018.9mb 47f 47f
8:50 2ft 4s 4s 11 13 mph 1019.2mb 47f 47f
8:20 2ft 4s 4s 13 18 mph 1018.9mb 47f 47f
7:50 2ft 4s 4s 7
mph
1019.2mb 47f 46f
7:20 2ft 5s 4s 9
mph
1018.8mb 47f 47f
6:50 2.5ft 4s 4s 4 7 mph 1018.9mb 47f 47f
6:20 1.6ft 4s 4s 7 9 mph 1018.8mb 47f 47f
5:50 1.6ft 4s 4s 2 4 mph 1019.4mb 47f 47f
5:20 1.6ft 4s 4s 7 9 mph 1018.8mb 47f 47f
4:50 1.3ft 4s 3s 4 7 mph 1019mb 47f 47f
4:20 1.3ft 3s 3s 7 9 mph 1019.1mb 47f 47f
3:50 1ft 3s 3s 16 20 mph 1019.2mb 47f 47f
3:20 1ft 3s 3s 16 18 mph 1019.4mb 47f 47f
2:50 1ft 3s 3s 13 16 mph 1019.5mb 47f 46f
2:20 1.3ft 3s 3s 11 13 mph 1020.2mb 47f 47f
1:50 1.6ft 4s 4s 9 11 mph 1020.8mb 47f 47f
1:20 1.6ft 3s 4s 7 9 mph 1021.6mb 47f 47f
12:50 1.6ft 9s 4s 4
mph
1021.6mb 47f 47f
12:20 1.6ft 10s 5s 4
mph
1021.5mb 47f 47f
Seg 03/27 11:50 1.3ft 4s 4s 4 7 mph 1021.6mb 47f 47f
11:20 1.3ft 4s 4s 9 11 mph 1021.9mb 47f 47f
10:50 1.3ft 4s 4s 11 16 mph 1021.7mb 47f 47f
10:20 1ft 11s 4s 7 9 mph 1021.6mb 47f 47f
9:50 0.7ft  -  4s 9 13 mph 1021.4mb 47f 48f
9:20 0.7ft  -  4s 9 11 mph 1021.1mb 47f 48f
8:50 0.7ft  -  4s 9 13 mph 1021mb 47f 48f
8:20 0.7ft  -  4s 9 11 mph 1020.8mb 47f 49f
7:50 0.7ft  -  3s 9
mph
1020.4mb 47f 48f
7:20 0.7ft  -  3s 9 11 mph 1020.4mb 47f 49f
6:50 0.7ft  -  3s 11 13 mph 1020.1mb 47f 49f
6:20 0.7ft  -  4s 11 13 mph 1019.7mb 47f 48f
5:50 0.3ft  -  3s 9 11 mph 1019.7mb 47f 48f
5:20 0.3ft  -  3s 9 11 mph 1019.6mb 47f 49f
4:50 0.3ft  -  3s 9
mph
1019.6mb 47f 48f
4:20 0.3ft  -  4s 9 11 mph 1019.5mb 48f 48f
3:50 0.3ft  -  3s 11
mph
1019.5mb 48f 49f
3:20 0.7ft  -  3s 11 13 mph 1019.6mb 48f 49f
2:50 0.3ft  -  4s 7 9 mph 1019.5mb 48f 49f
2:20 0.3ft  -  3s 4 7 mph 1019.2mb 48f 49f
1:50 0.7ft  -  4s 2
mph
1018.8mb 48f 49f
1:20 0.7ft  -  4s 2
mph
1018.1mb 49f 49f
12:50 0.7ft  -  3s 2 4 mph 1017.6mb 50f 49f
12:20 0.7ft  -  3s 2
mph
1017.4mb 49f 50f
11:50 0.7ft  -  3s 2 4 mph 1017.3mb 49f 48f
11:20 0.7ft  -  3s 2
mph
1016.5mb 48f 49f
10:50 0.7ft  -  3s 2
mph
1015.6mb 48f 48f
10:20 0.7ft  -  3s 4 7 mph 1015.6mb 47f 47f
9:50 0.7ft  -  3s 4 7 mph 1015.2mb 47f 47f
9:20 0.7ft  -  3s 2 4 mph 1014.5mb 47f 48f
8:50 0.3ft  -  4s 2
mph
1014mb 47f 47f
8:20 0.3ft  -  3s 4
mph
1013.5mb 47f 46f
7:50 0.3ft  -  3s 2
mph
1013.1mb 47f 46f
7:20 0.3ft  -  3s  -  mph 1012.8mb 47f 46f
6:50 0.3ft  -  3s 2
mph
1012.5mb 47f 46f
6:20 0.3ft  -  3s 2
mph
1012.1mb 47f 46f
5:50 0.3ft  -  3s 2
mph
1011.8mb 47f 46f
5:20 0.3ft  -  3s 4 7 mph 1011.4mb 47f 46f
4:50 0.3ft  -  3s 7
mph
1010.9mb 47f 46f
4:20 0.3ft  -  3s 7 9 mph 1010.5mb 47f 46f
3:50 0.3ft  -  3s 7
mph
1010.5mb 47f 46f
3:20 0.3ft  -  3s 4
mph
1010.1mb 47f 46f
2:50 0.3ft  -  3s 7
mph
1010mb 47f 47f
2:20 0.7ft  -  3s 7
mph
1010mb 47f 47f
1:50 0.7ft  -  3s 7 9 mph 1009.6mb 47f 47f
1:20 0.7ft  -  3s 4
mph
1009.3mb 47f 47f
12:50 0.7ft  -  3s 2
mph
1009.1mb 47f 47f
12:20 0.7ft  -  3s  -  2 mph 1008.8mb 47f 46f
Dom 03/26 11:50 1ft 3s 3s 2 4 mph 1008.5mb 47f 46f
11:20 1ft 3s 3s 4 7 mph 1008.1mb 47f 46f
10:50 1ft 3s 3s 4
mph
1007.9mb 47f 47f
10:20 1.3ft 3s 3s 9 11 mph 1007.5mb 47f 47f
9:20 1.6ft 4s 3s 9
mph
1006.7mb 47f 47f
8:50 2ft 4s 3s 2 4 mph 1006.5mb 47f 47f
8:20 2ft 4s 3s 4 7 mph 1006.3mb 47f 47f
7:50 2ft 4s 4s 7 11 mph 1006.3mb 47f 47f
7:20 2.5ft 4s 4s 16 20 mph 1005.6mb 47f 47f
6:50 3ft 5s 4s 13 20 mph 1005.4mb 47f 47f
6:20 3ft 4s 4s 20 25 mph 1005mb 47f 47f
5:50 2.5ft 5s 4s 18 22 mph 1004.9mb 47f 47f
5:20 3ft 5s 4s 7 9 mph 1005mb 47f 47f
4:50 2.5ft 5s 4s 11 18 mph 1004.6mb 47f 48f
4:20 3.5ft 4s 4s 18 22 mph 1004.1mb 47f 48f
3:50 3.5ft 5s 4s 25 29 mph 1004mb 47f 47f
3:20 3.5ft 5s 4s 22 29 mph 1004.1mb 47f 47f
2:50 4.5ft 5s 4s 27 31 mph 1004.4mb 47f 47f